Time;durP1;ratioP1;P1;durP2;ratioP2;P2;SDS_P1;SDS_P2;PMS_P1;PMS_P2;Temp;Humidity;BMP_temperature;BMP_pressure;BME280_temperature;BME280_humidity;BME280_pressure;Samples;Min_cycle;Max_cycle;Signal;HPM_P1;HPM_P2
2022/08/09 00:02:21;;;;;;;7.25;4.35;;;;;;;24.19;43.74;100693.03;5054717;28;20912;-90
2022/08/09 00:04:47;;;;;;;6.07;4.30;;;;;;;24.22;43.98;100687.84;5055075;28;20501;-89
2022/08/09 00:07:15;;;;;;;10.85;4.70;;;;;;;24.20;44.11;100687.25;5055642;28;20033;-90
2022/08/09 00:09:44;;;;;;;8.57;4.70;;;;;;;23.98;44.72;100670.72;5067020;28;20028;-91
2022/08/09 00:12:13;;;;;;;7.55;4.40;;;;;;;24.03;45.00;100689.19;5036539;28;20465;-89
2022/08/09 00:14:38;;;;;;;8.50;4.38;;;;;;;23.96;45.77;100688.53;5018707;28;20072;-90
2022/08/09 00:17:06;;;;;;;6.00;4.70;;;;;;;24.02;45.59;100698.50;5021529;28;20069;-89
2022/08/09 00:19:33;;;;;;;11.05;4.78;;;;;;;23.98;46.41;100687.19;5045997;28;20099;-91
2022/08/09 00:22:06;;;;;;;7.22;4.80;;;;;;;23.91;46.98;100697.50;5035534;28;20037;-89
2022/08/09 00:24:35;;;;;;;7.22;5.00;;;;;;;23.84;47.10;100676.78;5015827;28;20045;-91
2022/08/09 00:27:03;;;;;;;12.00;4.82;;;;;;;23.90;47.14;100700.50;5003837;28;20044;-91
2022/08/09 00:29:31;;;;;;;7.75;5.10;;;;;;;23.82;47.62;100687.19;5013453;28;20132;-90
2022/08/09 00:31:57;;;;;;;6.60;4.80;;;;;;;23.83;47.78;100697.06;4998492;28;20421;-90
2022/08/09 00:34:25;;;;;;;6.82;4.70;;;;;;;23.71;48.57;100692.44;5034804;28;20060;-89
2022/08/09 00:36:52;;;;;;;6.88;4.63;;;;;;;23.63;48.82;100690.13;5010621;28;20072;-89
2022/08/09 00:39:18;;;;;;;8.10;5.07;;;;;;;23.48;49.23;100682.41;5024851;28;20068;-90
2022/08/09 00:41:44;;;;;;;8.60;4.90;;;;;;;23.55;49.25;100698.75;5012843;28;20038;-89
2022/08/09 00:44:19;;;;;;;6.72;4.82;;;;;;;23.30;49.76;100664.28;5007899;28;20040;-90
2022/08/09 00:46:47;;;;;;;8.18;4.75;;;;;;;23.31;49.97;100685.13;5041724;28;20029;-92
2022/08/09 00:49:13;;;;;;;10.65;5.20;;;;;;;23.33;49.95;100690.38;4990711;28;20568;-90
2022/08/09 00:51:38;;;;;;;9.88;4.90;;;;;;;23.13;50.10;100663.38;5006193;28;20034;-91
2022/08/09 00:54:05;;;;;;;9.20;4.88;;;;;;;23.07;50.14;100656.97;5027097;28;20136;-92
2022/08/09 00:56:31;;;;;;;8.88;4.80;;;;;;;23.27;50.21;100680.38;5042679;28;20041;-89
2022/08/09 00:59:03;;;;;;;10.95;4.90;;;;;;;23.22;49.95;100678.38;4999517;28;20061;-91
2022/08/09 01:01:35;;;;;;;9.05;4.65;;;;;;;23.23;50.25;100685.53;5029160;28;20043;-91
2022/08/09 01:04:21;;;;;;;10.95;5.38;;;;;;;23.21;50.25;100663.00;5050953;28;20051;-89
2022/08/09 01:07:21;;;;;;;8.05;4.93;;;;;;;23.23;50.11;100677.31;5017237;28;20095;-92
2022/08/09 01:10:16;;;;;;;7.78;4.85;;;;;;;23.27;50.43;100681.22;5028818;28;20029;-89
2022/08/09 01:13:13;;;;;;;8.05;4.45;;;;;;;23.24;50.78;100681.69;5058638;28;20053;-89
2022/08/09 01:15:43;;;;;;;5.78;4.80;;;;;;;23.20;51.13;100683.25;5057790;28;20435;-90
2022/08/09 01:18:21;;;;;;;7.55;4.63;;;;;;;23.20;51.00;100671.47;5047670;28;20048;-91
2022/08/09 01:21:18;;;;;;;9.93;4.55;;;;;;;23.23;50.85;100682.78;5048633;28;20053;-89
2022/08/09 01:23:59;;;;;;;11.20;5.22;;;;;;;23.19;51.29;100681.59;5045904;28;20035;-91
2022/08/09 01:27:05;;;;;;;12.43;5.07;;;;;;;23.14;52.10;100665.06;5021168;28;20095;-89
2022/08/09 01:29:52;;;;;;;7.95;4.85;;;;;;;23.20;52.09;100675.03;5050316;28;20048;-91
2022/08/09 01:32:20;;;;;;;9.35;5.20;;;;;;;23.16;52.49;100668.41;5026517;28;20120;-90
2022/08/09 01:34:53;;;;;;;8.30;4.90;;;;;;;23.17;52.48;100665.38;5027881;28;20487;-91
2022/08/09 01:37:22;;;;;;;;;;;;;;;23.10;52.66;100650.16;5041206;28;20033;-93
2022/08/09 01:39:50;;;;;;;11.20;5.57;;;;;;;23.03;52.93;100646.72;5021919;28;19927;-93
2022/08/09 01:42:19;;;;;;;7.63;5.53;;;;;;;22.96;53.01;100647.66;5037002;28;20051;-91
2022/08/09 01:44:45;;;;;;;7.07;5.18;;;;;;;23.00;53.27;100655.47;5027282;28;20215;-90
2022/08/09 01:47:12;;;;;;;6.97;5.47;;;;;;;22.76;53.39;100628.09;5027368;28;20076;-91
2022/08/09 01:49:41;;;;;;;6.75;5.28;;;;;;;22.89;53.23;100657.94;5039721;28;20131;-93
2022/08/09 01:52:17;;;;;;;8.18;5.03;;;;;;;22.89;53.49;100652.47;5044069;28;20049;-91
2022/08/09 01:54:51;;;;;;;6.95;5.15;;;;;;;22.84;53.50;100646.88;5049116;28;20072;-92
2022/08/09 01:57:22;;;;;;;9.73;5.20;;;;;;;22.81;53.43;100644.63;5030043;28;20127;-93
2022/08/09 01:59:50;;;;;;;11.00;5.10;;;;;;;22.79;53.72;100655.00;5052496;28;20071;-91
2022/08/09 02:02:24;;;;;;;5.80;5.05;;;;;;;22.67;53.80;100637.75;5046565;28;20057;-93
2022/08/09 02:04:53;;;;;;;9.30;5.40;;;;;;;22.74;53.74;100644.75;5023672;28;20033;-90
2022/08/09 02:07:25;;;;;;;7.20;4.90;;;;;;;22.73;53.86;100642.25;5047261;28;20405;-92
2022/08/09 02:10:44;;;;;;;9.65;5.25;;;;;;;22.73;53.73;100647.72;5034498;28;20508;-89
2022/08/09 02:13:11;;;;;;;6.55;5.60;;;;;;;22.58;54.01;100634.56;5071753;28;20049;-91
2022/08/09 02:15:40;;;;;;;8.23;5.35;;;;;;;22.58;54.26;100630.97;5038324;28;20448;-92
2022/08/09 02:18:11;;;;;;;7.95;5.22;;;;;;;22.66;54.02;100636.06;5050676;28;20135;-91
2022/08/09 02:20:45;;;;;;;7.00;5.07;;;;;;;22.55;53.46;100621.34;5064864;28;20539;-91
2022/08/09 02:23:22;;;;;;;9.48;5.32;;;;;;;22.68;53.85;100640.25;5034070;28;20485;-92
2022/08/09 02:25:52;;;;;;;8.85;4.95;;;;;;;22.71;54.06;100641.66;5050995;28;20075;-90
2022/08/09 02:28:51;;;;;;;6.70;5.30;;;;;;;22.71;54.03;100633.44;5042722;28;20041;-91
2022/08/09 02:31:26;;;;;;;11.93;5.65;;;;;;;22.64;54.29;100630.00;5057027;28;20048;-92
2022/08/09 02:33:55;;;;;;;9.75;5.38;;;;;;;22.65;54.29;100618.81;5065114;28;20029;-92
2022/08/09 02:36:28;;;;;;;6.88;5.32;;;;;;;22.63;54.61;100634.66;5040107;28;20051;-90
2022/08/09 02:38:55;;;;;;;11.07;5.50;;;;;;;22.74;54.63;100652.16;5046643;28;20135;-91
2022/08/09 02:41:33;;;;;;;11.50;5.35;;;;;;;22.72;54.93;100673.47;5040657;28;20063;-92
2022/08/09 02:44:07;;;;;;;12.00;5.85;;;;;;;22.67;55.45;100667.91;5007652;28;20048;-93
2022/08/09 02:46:36;;;;;;;7.57;5.60;;;;;;;22.63;55.76;100680.41;5069342;28;20074;-89
2022/08/09 02:49:05;;;;;;;7.85;5.60;;;;;;;22.51;56.47;100686.72;5039999;28;20102;-91
2022/08/09 02:51:35;;;;;;;8.73;6.18;;;;;;;22.48;56.78;100686.38;5031971;28;20124;-92
2022/08/09 02:54:10;;;;;;;6.88;5.80;;;;;;;22.41;57.09;100689.25;5041217;28;20504;-91
2022/08/09 02:56:40;;;;;;;9.25;6.10;;;;;;;22.29;57.65;100691.16;5040263;28;20416;-93
2022/08/09 02:59:09;;;;;;;9.35;6.18;;;;;;;22.27;58.10;100688.66;5023967;28;20102;-91
2022/08/09 03:01:41;;;;;;;11.98;5.88;;;;;;;22.16;58.63;100674.91;5047648;28;20425;-92
2022/08/09 03:04:14;;;;;;;8.00;6.00;;;;;;;22.18;58.49;100697.44;5038154;28;20045;-90
2022/08/09 03:06:46;;;;;;;8.95;6.03;;;;;;;22.18;58.30;100689.22;5055109;28;20404;-91
2022/08/09 03:09:19;;;;;;;11.13;5.90;;;;;;;22.08;58.53;100685.16;5030155;28;20037;-90
2022/08/09 03:11:45;;;;;;;10.07;6.07;;;;;;;22.21;58.38;100703.28;5027666;28;20057;-91
2022/08/09 03:14:41;;;;;;;8.73;7.00;;;;;;;22.22;58.87;100707.69;5038671;28;20033;-91
2022/08/09 03:17:12;;;;;;;10.25;6.50;;;;;;;22.03;58.86;100686.91;5064514;28;20117;-92
2022/08/09 03:19:38;;;;;;;11.27;6.10;;;;;;;22.09;59.04;100703.22;5071978;28;20154;-89
2022/08/09 03:22:08;;;;;;;11.60;6.07;;;;;;;22.17;59.29;100703.94;5048727;28;20037;-90
2022/08/09 03:24:34;;;;;;;12.25;6.47;;;;;;;22.08;59.38;100709.78;5041722;28;20535;-91
2022/08/09 03:27:02;;;;;;;9.00;6.10;;;;;;;22.16;59.53;100707.78;5029029;28;20025;-92
2022/08/09 03:29:28;;;;;;;10.02;6.53;;;;;;;22.04;59.70;100692.16;5048295;28;20033;-90
2022/08/09 03:31:58;;;;;;;9.05;6.85;;;;;;;22.07;60.74;100710.03;5040728;28;20045;-93
2022/08/09 03:34:25;;;;;;;10.43;6.57;;;;;;;21.98;60.16;100684.88;5049204;28;20029;-91
2022/08/09 03:36:52;;;;;;;8.10;6.22;;;;;;;22.05;60.11;100685.59;5036843;28;20052;-92
2022/08/09 03:39:18;;;;;;;10.57;6.60;;;;;;;21.99;60.55;100686.56;5036127;28;20072;-90
2022/08/09 03:41:52;;;;;;;14.93;7.20;;;;;;;22.14;60.65;100713.47;5036085;28;20036;-90
2022/08/09 03:44:28;;;;;;;8.82;6.28;;;;;;;22.21;60.66;100716.13;5032336;28;20029;-91
2022/08/09 03:47:02;;;;;;;9.63;6.35;;;;;;;22.14;60.68;100714.31;5022343;28;20128;-92
2022/08/09 03:49:36;;;;;;;7.47;5.93;;;;;;;22.18;60.64;100705.63;5036260;28;20024;-91
2022/08/09 03:52:02;;;;;;;10.55;6.30;;;;;;;22.15;60.87;100723.38;5012007;28;20044;-92
2022/08/09 03:54:38;;;;;;;12.63;7.15;;;;;;;22.17;60.84;100710.25;5042457;28;20032;-91
2022/08/09 03:57:14;;;;;;;8.90;6.40;;;;;;;22.14;60.75;100689.66;5037541;28;20079;-93
2022/08/09 03:59:40;;;;;;;8.95;6.40;;;;;;;22.23;60.95;100708.53;5022989;28;20033;-92
2022/08/09 04:02:06;;;;;;;11.05;6.90;;;;;;;22.25;60.77;100711.88;5031937;28;20040;-90
2022/08/09 04:04:35;;;;;;;11.25;6.55;;;;;;;22.24;60.91;100712.91;5045514;28;20055;-91
2022/08/09 04:07:00;;;;;;;9.25;6.30;;;;;;;22.29;61.02;100718.53;5040871;28;20491;-89
2022/08/09 04:09:26;;;;;;;8.77;6.50;;;;;;;22.23;61.01;100714.00;5034225;28;20646;-91
2022/08/09 04:12:14;;;;;;;10.13;6.85;;;;;;;22.30;60.80;100720.19;5040940;28;20044;-89
2022/08/09 04:14:42;;;;;;;12.05;6.47;;;;;;;22.18;60.95;100701.00;5036311;28;20033;-88
2022/08/09 04:17:08;;;;;;;12.88;6.65;;;;;;;22.41;60.56;100713.06;5060637;28;20033;-89
2022/08/09 04:19:36;;;;;;;10.80;6.70;;;;;;;22.34;60.56;100699.50;5019397;28;20028;-90
2022/08/09 04:22:04;;;;;;;9.48;6.47;;;;;;;22.42;60.66;100715.56;5017564;28;20071;-91
2022/08/09 04:24:33;;;;;;;9.32;6.90;;;;;;;22.41;60.32;100707.59;5064095;28;20052;-91
2022/08/09 04:27:05;;;;;;;8.30;6.35;;;;;;;22.54;59.94;100721.03;5035287;28;20059;-93
2022/08/09 04:29:30;;;;;;;12.98;6.70;;;;;;;22.53;60.19;100711.97;5031723;28;20074;-93
2022/08/09 04:32:01;;;;;;;9.48;6.70;;;;;;;22.59;59.95;100714.84;5040641;28;20070;-90
2022/08/09 04:34:32;;;;;;;8.77;5.97;;;;;;;22.58;60.01;100703.03;5053870;28;20025;-91
2022/08/09 04:37:02;;;;;;;11.02;6.10;;;;;;;22.69;59.51;100706.84;5040074;28;20040;-88
2022/08/09 04:39:28;;;;;;;11.65;6.65;;;;;;;22.67;59.50;100695.31;5018126;28;20044;-91
2022/08/09 04:41:54;;;;;;;12.60;6.60;;;;;;;22.80;58.83;100700.50;5052172;28;20043;-92
2022/08/09 04:44:20;;;;;;;11.18;6.65;;;;;;;23.00;59.05;100713.03;5033765;28;20082;-88
2022/08/09 04:46:56;;;;;;;9.88;6.80;;;;;;;23.07;58.51;100705.50;5044365;28;20078;-92
2022/08/09 04:49:35;;;;;;;10.38;5.95;;;;;;;23.07;58.03;100686.31;5038429;28;20142;-91
2022/08/09 04:52:08;;;;;;;10.13;6.20;;;;;;;23.50;57.15;100709.63;5045645;28;20040;-92
2022/08/09 04:54:37;;;;;;;7.68;5.97;;;;;;;23.93;56.06;100705.50;5036885;28;20040;-91
2022/08/09 04:57:04;;;;;;;11.20;6.32;;;;;;;24.05;55.01;100681.53;5046813;28;20040;-91
2022/08/09 04:59:31;;;;;;;9.07;5.82;;;;;;;24.26;54.13;100709.34;5054920;28;20526;-91
2022/08/09 05:02:08;;;;;;;9.93;5.47;;;;;;;24.31;53.60;100701.16;5048072;28;20064;-92
2022/08/09 05:04:42;;;;;;;10.73;6.40;;;;;;;24.35;53.55;100705.06;5041819;28;20048;-93
2022/08/09 05:07:08;;;;;;;11.20;6.10;;;;;;;24.70;52.71;100710.31;5039046;28;20036;-89
2022/08/09 05:09:39;;;;;;;11.77;5.93;;;;;;;25.22;51.24;100722.81;5037408;28;20049;-92
2022/08/09 05:12:05;;;;;;;10.55;6.03;;;;;;;25.58;50.61;100725.97;5043360;28;20179;-90
2022/08/09 05:14:34;;;;;;;11.30;5.53;;;;;;;25.76;49.96;100722.84;5068404;28;20063;-90
2022/08/09 05:17:03;;;;;;;11.60;5.80;;;;;;;26.05;49.38;100720.66;5044254;28;20037;-92
2022/08/09 05:19:32;;;;;;;7.32;5.80;;;;;;;26.06;48.91;100733.34;5035076;28;20076;-88
2022/08/09 05:22:01;;;;;;;9.88;5.88;;;;;;;26.04;48.90;100718.19;5039913;28;20460;-91
2022/08/09 05:24:28;;;;;;;8.40;5.80;;;;;;;26.06;48.69;100722.31;5030073;28;20047;-90
2022/08/09 05:26:56;;;;;;;12.02;5.80;;;;;;;26.25;48.29;100717.25;5065794;28;20150;-89
2022/08/09 05:29:23;;;;;;;10.82;5.40;;;;;;;26.43;47.75;100728.94;5067969;28;20036;-91
2022/08/09 05:31:51;;;;;;;11.15;5.65;;;;;;;26.75;46.99;100728.91;5036425;28;20530;-90
2022/08/09 05:34:18;;;;;;;8.85;5.15;;;;;;;27.04;45.68;100717.44;5039318;28;20049;-93
2022/08/09 05:36:50;;;;;;;9.93;5.43;;;;;;;27.35;45.21;100719.25;5071722;28;20029;-90
2022/08/09 05:39:17;;;;;;;12.40;5.60;;;;;;;27.64;44.00;100717.94;5032708;28;20041;-92
2022/08/09 05:41:43;;;;;;;8.30;5.22;;;;;;;28.01;43.53;100719.69;5015357;28;20182;-88
2022/08/09 05:44:09;;;;;;;9.65;5.07;;;;;;;28.40;42.66;100737.34;5034629;28;20056;-91
2022/08/09 05:46:36;;;;;;;7.97;4.82;;;;;;;28.69;41.09;100728.47;5032735;28;20032;-91
2022/08/09 05:49:04;;;;;;;11.90;5.05;;;;;;;29.04;40.61;100732.22;5055565;28;20055;-92
2022/08/09 05:51:34;;;;;;;9.52;5.03;;;;;;;29.30;39.84;100726.63;5059606;28;20056;-92
2022/08/09 05:54:02;;;;;;;11.32;5.00;;;;;;;29.45;38.88;100718.19;5040110;28;20068;-91
2022/08/09 05:56:52;;;;;;;10.15;4.47;;;;;;;29.88;37.11;100721.28;5046318;28;20049;-93
2022/08/09 05:59:26;;;;;;;7.38;4.13;;;;;;;30.06;35.66;100723.38;5064343;28;20036;-96
2022/08/09 06:02:00;;;;;;;10.23;4.03;;;;;;;30.19;34.96;100709.94;5049797;28;20047;-91
2022/08/09 06:04:52;;;;;;;9.07;4.00;;;;;;;30.45;33.94;100725.25;5047709;28;20154;-92
2022/08/09 06:07:29;;;;;;;10.63;4.30;;;;;;;30.68;33.61;100711.69;5044297;28;20123;-93
2022/08/09 06:10:19;;;;;;;13.45;4.20;;;;;;;31.00;33.04;100713.00;5055060;28;20044;-92
2022/08/09 06:12:54;;;;;;;9.18;4.07;;;;;;;31.08;32.80;100718.72;5034776;28;20461;-93
2022/08/09 06:15:28;;;;;;;;;;;;;;;31.39;33.13;100736.94;5044157;28;20081;-92
2022/08/09 06:17:56;;;;;;;7.72;4.10;;;;;;;31.50;32.69;100732.94;5075334;28;19911;-91
2022/08/09 06:20:57;;;;;;;9.65;4.20;;;;;;;31.65;32.29;100735.47;5053566;28;20537;-94
2022/08/09 06:23:54;;;;;;;7.80;3.90;;;;;;;31.79;32.08;100746.66;5058436;28;20128;-92
2022/08/09 06:26:26;;;;;;;6.00;4.32;;;;;;;31.81;31.77;100736.06;5050031;28;20041;-89
2022/08/09 06:28:55;;;;;;;10.18;4.20;;;;;;;32.08;31.82;100743.72;5045256;28;20021;-92
2022/08/09 06:31:23;;;;;;;10.65;4.45;;;;;;;32.22;31.08;100737.38;5020134;28;20073;-90
2022/08/09 06:33:50;;;;;;;12.55;4.32;;;;;;;32.26;30.63;100727.28;5034698;28;20040;-90
2022/08/09 06:36:48;;;;;;;8.77;4.60;;;;;;;32.44;31.07;100740.31;5031294;28;20025;-92
2022/08/09 06:39:13;;;;;;;7.32;4.22;;;;;;;32.72;30.51;100743.19;5068999;28;20089;-89
2022/08/09 06:41:39;;;;;;;8.18;4.18;;;;;;;32.81;30.18;100746.91;5062549;28;20036;-90
2022/08/09 06:44:05;;;;;;;8.32;4.30;;;;;;;32.86;30.08;100741.22;5057328;28;20064;-86
2022/08/09 06:46:30;;;;;;;7.22;4.35;;;;;;;32.96;30.61;100743.78;5020707;28;20033;-87
2022/08/09 06:49:01;;;;;;;11.50;4.10;;;;;;;33.11;30.57;100747.44;5016238;28;20073;-91
2022/08/09 06:51:34;;;;;;;7.25;4.45;;;;;;;33.19;30.07;100749.50;5042765;28;20056;-90
2022/08/09 06:54:00;;;;;;;7.38;4.20;;;;;;;33.35;29.80;100745.25;5039357;28;20117;-91
2022/08/09 06:56:28;;;;;;;7.32;4.90;;;;;;;33.54;29.69;100749.84;5022377;28;20045;-90
2022/08/09 06:58:54;;;;;;;7.60;3.85;;;;;;;33.74;29.36;100749.41;5063049;28;20130;-89
2022/08/09 07:01:19;;;;;;;7.00;3.85;;;;;;;33.80;29.18;100736.97;5051402;28;20037;-88
2022/08/09 07:03:49;;;;;;;11.45;4.40;;;;;;;33.92;29.07;100739.19;5038782;28;20060;-86
2022/08/09 07:06:15;;;;;;;7.43;3.92;;;;;;;34.03;28.70;100737.00;5014373;28;20477;-86
2022/08/09 07:08:41;;;;;;;12.60;4.10;;;;;;;34.32;28.21;100730.16;5036967;28;20033;-86
2022/08/09 07:11:06;;;;;;;6.28;4.15;;;;;;;34.55;27.80;100722.56;5011966;28;20040;-84
2022/08/09 07:13:34;;;;;;;9.93;4.00;;;;;;;34.68;26.94;100736.44;5032317;28;20044;-88
2022/08/09 07:15:59;;;;;;;7.88;3.90;;;;;;;35.01;26.89;100724.09;5056302;28;20111;-87
2022/08/09 07:18:29;;;;;;;7.70;4.10;;;;;;;35.29;26.19;100731.06;5041293;28;20043;-86
2022/08/09 07:20:55;;;;;;;6.30;3.63;;;;;;;35.45;24.96;100728.63;5042290;28;20142;-84
2022/08/09 07:23:23;;;;;;;5.65;3.40;;;;;;;35.45;25.05;100731.44;5050176;28;20029;-86
2022/08/09 07:25:49;;;;;;;8.82;3.67;;;;;;;35.58;25.19;100726.81;5043448;28;20033;-87
2022/08/09 07:28:16;;;;;;;5.88;3.80;;;;;;;35.83;24.97;100732.78;5046540;28;20056;-88
2022/08/09 07:30:42;;;;;;;8.18;4.00;;;;;;;35.89;25.36;100726.69;5037318;28;20053;-91
2022/08/09 07:33:08;;;;;;;11.75;3.58;;;;;;;36.23;22.29;100727.81;5044758;28;20081;-89
2022/08/09 07:35:34;;;;;;;8.18;2.80;;;;;;;36.14;20.87;100732.59;5063759;28;20089;-90
2022/08/09 07:38:01;;;;;;;8.00;2.70;;;;;;;35.85;20.40;100730.50;5064957;28;20045;-89
2022/08/09 07:40:27;;;;;;;7.97;3.10;;;;;;;36.06;20.58;100734.25;5023911;28;20428;-89
2022/08/09 07:42:55;;;;;;;6.72;3.53;;;;;;;36.31;20.88;100721.34;5049629;28;20024;-88
2022/08/09 07:45:26;;;;;;;8.50;3.10;;;;;;;36.59;20.14;100732.16;5048833;28;20045;-89
2022/08/09 07:47:55;;;;;;;7.18;2.60;;;;;;;36.53;19.92;100727.91;5065107;28;20028;-87
2022/08/09 07:50:25;;;;;;;5.60;2.67;;;;;;;36.77;19.72;100735.72;5067127;28;20051;-89
2022/08/09 07:52:55;;;;;;;7.40;2.80;;;;;;;36.66;19.39;100728.84;5029271;28;20021;-87
2022/08/09 07:55:24;;;;;;;6.68;2.90;;;;;;;36.65;20.37;100744.84;5039707;28;20033;-87
2022/08/09 07:57:51;;;;;;;8.43;2.80;;;;;;;36.26;19.37;100726.31;5036910;28;20064;-86
2022/08/09 08:00:18;;;;;;;11.13;2.78;;;;;;;36.30;19.04;100714.13;5070569;28;20075;-86
2022/08/09 08:02:53;;;;;;;7.95;3.00;;;;;;;36.64;18.78;100729.19;5011513;28;20037;-87
2022/08/09 08:05:21;;;;;;;7.35;2.80;;;;;;;36.58;17.68;100722.13;5042248;28;20048;-88
2022/08/09 08:07:48;;;;;;;9.35;3.00;;;;;;;36.66;17.09;100732.47;5036730;28;20075;-88
2022/08/09 08:10:18;;;;;;;6.25;2.40;;;;;;;36.82;16.25;100729.94;5036411;28;20114;-86
2022/08/09 08:12:44;;;;;;;6.72;2.17;;;;;;;37.34;16.27;100723.22;5032520;28;20064;-88
2022/08/09 08:15:19;;;;;;;8.65;2.67;;;;;;;37.55;16.34;100732.47;5035292;28;20029;-85
2022/08/09 08:17:54;;;;;;;5.80;2.45;;;;;;;37.92;16.07;100727.06;5022849;28;20607;-92
2022/08/09 08:20:23;;;;;;;10.75;2.80;;;;;;;38.15;16.13;100719.09;5020159;28;20030;-88
2022/08/09 08:22:49;;;;;;;7.45;2.80;;;;;;;38.39;16.28;100720.31;5010094;28;20057;-91
2022/08/09 08:25:16;;;;;;;7.95;2.97;;;;;;;38.77;16.47;100714.41;5019593;28;20089;-88
2022/08/09 08:27:44;;;;;;;6.00;2.85;;;;;;;39.05;15.98;100699.66;5019650;28;20424;-89
2022/08/09 08:30:12;;;;;;;10.43;2.55;;;;;;;39.15;15.85;100718.88;5044840;28;20163;-90
2022/08/09 08:32:41;;;;;;;7.68;2.55;;;;;;;38.97;16.48;100712.69;5020779;28;20570;-91
2022/08/09 08:35:07;;;;;;;7.20;2.45;;;;;;;39.25;15.47;100715.56;5020346;28;20420;-89
2022/08/09 08:37:34;;;;;;;6.13;2.45;;;;;;;38.88;14.38;100717.56;5018830;28;20116;-90
2022/08/09 08:40:02;;;;;;;10.80;2.30;;;;;;;38.76;13.19;100709.97;5000392;28;20010;-91
2022/08/09 08:42:31;;;;;;;6.93;2.17;;;;;;;38.38;13.74;100716.69;5017650;28;20025;-89
2022/08/09 08:44:59;;;;;;;6.70;2.30;;;;;;;38.90;13.88;100720.03;5007905;28;20046;-88
2022/08/09 08:47:25;;;;;;;8.68;2.30;;;;;;;38.28;14.68;100705.91;5040655;28;20433;-85
2022/08/09 08:49:53;;;;;;;9.35;2.28;;;;;;;38.10;14.67;100721.31;5030988;28;20064;-83
2022/08/09 08:52:20;;;;;;;6.07;2.30;;;;;;;38.23;15.34;100704.13;5026229;28;20033;-86
2022/08/09 08:54:46;;;;;;;9.70;2.63;;;;;;;38.73;15.60;100719.09;5032575;28;20053;-87
2022/08/09 08:57:12;;;;;;;10.50;2.75;;;;;;;39.58;14.99;100706.13;5017620;28;20039;-86
2022/08/09 08:59:41;;;;;;;7.55;2.90;;;;;;;39.50;15.27;100720.34;5043294;28;20060;-87
2022/08/09 09:02:13;;;;;;;7.70;2.83;;;;;;;39.96;15.15;100715.28;5042377;28;20029;-87
2022/08/09 09:04:40;;;;;;;11.98;2.80;;;;;;;40.25;15.13;100700.00;5019087;28;20040;-87
2022/08/09 09:07:09;;;;;;;15.93;2.80;;;;;;;40.40;14.72;100696.38;5034248;28;20485;-86
2022/08/09 09:09:36;;;;;;;8.70;2.80;;;;;;;39.99;15.73;100718.19;5032155;28;20113;-86
2022/08/09 09:12:03;;;;;;;8.70;2.90;;;;;;;40.49;15.39;100713.91;5030881;28;20108;-87
2022/08/09 09:14:29;;;;;;;10.38;3.08;;;;;;;40.41;15.03;100697.19;5032209;28;20476;-90
2022/08/09 09:16:57;;;;;;;11.27;2.80;;;;;;;41.39;14.73;100701.16;5037099;28;20021;-90
2022/08/09 09:19:22;;;;;;;9.95;3.00;;;;;;;41.53;14.51;100693.00;5037361;28;20037;-88
2022/08/09 09:22:04;;;;;;;11.13;2.75;;;;;;;41.99;13.17;100712.94;5046749;28;20041;-89
2022/08/09 09:24:38;;;;;;;9.80;2.50;;;;;;;41.85;12.70;100713.44;5036632;28;20039;-89
2022/08/09 09:27:05;;;;;;;;;;;;;;;41.95;13.04;100706.38;5055094;28;20036;-88
2022/08/09 09:29:42;;;;;;;5.50;2.60;;;;;;;42.07;13.01;100702.59;5067053;28;20019;-89
2022/08/09 09:32:12;;;;;;;7.70;2.53;;;;;;;42.51;12.88;100694.53;5063844;28;20055;-91
2022/08/09 09:34:41;;;;;;;7.43;2.50;;;;;;;43.03;11.90;100685.66;5036872;28;20044;-90
2022/08/09 09:37:07;;;;;;;8.75;2.17;;;;;;;42.79;11.35;100682.06;5042058;28;20049;-89
2022/08/09 09:39:33;;;;;;;5.00;2.15;;;;;;;43.47;11.06;100691.53;5074173;28;20044;-91
2022/08/09 09:42:05;;;;;;;8.68;2.28;;;;;;;43.16;11.27;100667.28;5040219;28;20043;-90
2022/08/09 09:44:35;;;;;;;8.68;2.70;;;;;;;44.41;10.22;100685.72;5033600;28;20028;-92
2022/08/09 09:47:15;;;;;;;3.28;2.13;;;;;;;44.30;10.50;100673.44;5035783;28;20068;-90
2022/08/09 09:49:49;;;;;;;6.03;2.40;;;;;;;43.98;10.29;100681.63;5024551;28;20037;-88
2022/08/09 09:52:26;;;;;;;5.18;2.25;;;;;;;43.28;10.13;100686.84;5038442;28;20465;-89
2022/08/09 09:54:52;;;;;;;4.70;2.30;;;;;;;44.35;9.80;100675.94;5021186;28;20029;-90
2022/08/09 09:57:24;;;;;;;6.68;2.20;;;;;;;44.33;10.00;100674.72;5010404;28;20090;-91
2022/08/09 09:59:54;;;;;;;5.53;2.50;;;;;;;43.91;10.29;100670.25;5021492;28;20036;-87
2022/08/09 10:02:25;;;;;;;10.82;2.38;;;;;;;43.23;9.77;100673.06;5034636;28;20413;-89
2022/08/09 10:05:06;;;;;;;9.38;2.35;;;;;;;42.48;10.18;100667.03;5051442;28;20036;-89
2022/08/09 10:07:35;;;;;;;8.55;2.00;;;;;;;42.63;9.89;100672.91;5079796;28;20086;-92
2022/08/09 10:10:05;;;;;;;6.47;2.10;;;;;;;42.33;10.28;100665.94;5052330;28;20048;-89
2022/08/09 10:12:38;;;;;;;11.95;2.17;;;;;;;41.43;10.95;100676.69;5040760;28;20029;-90
2022/08/09 10:15:14;;;;;;;4.63;1.92;;;;;;;41.63;10.77;100675.53;5034755;28;20041;-90
2022/08/09 10:17:42;;;;;;;7.75;2.53;;;;;;;42.39;10.72;100677.78;5038547;28;20058;-90
2022/08/09 10:20:19;;;;;;;7.90;2.30;;;;;;;43.75;9.43;100671.28;5067451;28;20474;-89
2022/08/09 10:22:54;;;;;;;5.53;2.15;;;;;;;43.81;9.49;100664.06;5064846;28;20371;-90
2022/08/09 10:25:22;;;;;;;5.60;2.08;;;;;;;43.59;9.36;100668.63;5026763;28;20043;-87
2022/08/09 10:27:49;;;;;;;7.45;2.25;;;;;;;44.52;9.01;100657.47;5041274;28;20056;-90
2022/08/09 10:30:15;;;;;;;13.25;2.88;;;;;;;45.59;8.29;100651.66;5045360;28;20074;-87
2022/08/09 10:32:40;;;;;;;9.25;2.42;;;;;;;45.23;7.88;100673.34;5020005;28;20135;-88
2022/08/09 10:35:09;;;;;;;8.73;2.20;;;;;;;46.40;7.46;100654.22;5044561;28;20462;-91
2022/08/09 10:37:37;;;;;;;6.65;2.38;;;;;;;46.44;7.65;100672.09;5051065;28;20080;-89
2022/08/09 10:40:04;;;;;;;7.97;2.30;;;;;;;44.63;7.78;100663.22;5038295;28;20079;-89
2022/08/09 10:42:30;;;;;;;9.35;2.20;;;;;;;44.60;8.60;100667.66;5023104;28;20049;-88
2022/08/09 10:45:04;;;;;;;10.35;2.35;;;;;;;45.61;7.94;100666.22;5029641;28;20036;-90
2022/08/09 10:47:45;;;;;;;9.75;2.83;;;;;;;44.65;8.50;100655.97;5031747;28;20041;-89
2022/08/09 10:50:17;;;;;;;6.57;1.92;;;;;;;43.85;8.27;100652.78;5055766;28;20029;-90
2022/08/09 10:52:47;;;;;;;5.32;1.98;;;;;;;42.87;8.84;100652.72;5026887;28;20076;-90
2022/08/09 10:55:28;;;;;;;4.82;1.92;;;;;;;41.82;9.79;100671.03;5030550;28;20028;-88
2022/08/09 10:58:34;;;;;;;8.38;2.10;;;;;;;41.00;10.10;100662.44;5041219;28;20041;-91
2022/08/09 11:01:04;;;;;;;4.47;1.98;;;;;;;41.02;10.61;100650.78;5044746;28;20036;-89
2022/08/09 11:03:32;;;;;;;12.70;1.98;;;;;;;41.26;10.24;100652.56;5025152;28;20047;-91
2022/08/09 11:06:32;;;;;;;6.20;2.00;;;;;;;40.88;10.16;100651.25;5055380;28;20449;-89
2022/08/09 11:09:00;;;;;;;6.22;2.08;;;;;;;41.32;10.65;100656.69;5016212;28;20045;-90
2022/08/09 11:12:04;;;;;;;8.63;2.40;;;;;;;41.40;10.04;100664.13;5042818;28;20501;-88
2022/08/09 11:14:34;;;;;;;8.82;1.90;;;;;;;40.88;10.06;100646.47;5063847;28;20138;-89
2022/08/09 11:17:26;;;;;;;5.78;1.70;;;;;;;40.29;10.31;100644.59;5056502;28;20024;-89
2022/08/09 11:19:54;;;;;;;10.73;2.30;;;;;;;40.12;10.30;100644.94;5061730;28;20068;-88
2022/08/09 11:22:43;;;;;;;11.00;2.38;;;;;;;40.45;10.62;100644.59;5046794;28;20041;-88
2022/08/09 11:25:28;;;;;;;7.25;1.90;;;;;;;39.76;10.16;100655.19;5059693;28;20056;-92
2022/08/09 11:27:54;;;;;;;6.97;2.22;;;;;;;39.39;10.85;100646.94;5042389;28;20037;-92
2022/08/09 11:30:26;;;;;;;10.85;2.28;;;;;;;39.36;11.34;100641.97;5033371;28;20052;-89
2022/08/09 11:33:15;;;;;;;13.88;2.40;;;;;;;39.38;11.87;100653.72;5065431;28;20036;-85
2022/08/09 11:35:56;;;;;;;10.73;2.47;;;;;;;39.34;11.75;100653.59;5040857;28;20090;-90
2022/08/09 11:38:29;;;;;;;8.27;2.40;;;;;;;39.31;12.08;100643.03;5071245;28;20028;-86
2022/08/09 11:41:02;;;;;;;13.73;2.80;;;;;;;39.13;12.68;100644.53;5038898;28;20052;-90
2022/08/09 11:43:30;;;;;;;5.85;2.60;;;;;;;39.05;12.46;100649.88;5048462;28;20052;-88
2022/08/09 11:46:00;;;;;;;6.65;2.85;;;;;;;38.90;12.27;100638.56;5054247;28;20033;-87